createdAt,value
2018-02-21T00:01:58.919Z,17.07
2018-02-21T00:04:26.427Z,17.43
2018-02-21T00:06:53.940Z,18.77
2018-02-21T00:09:21.432Z,16.53
2018-02-21T00:11:48.952Z,16.50
2018-02-21T00:14:16.435Z,16.83
2018-02-21T00:16:43.969Z,18.27
2018-02-21T00:19:11.464Z,18.47
2018-02-21T00:21:39.012Z,16.80
2018-02-21T00:24:06.571Z,17.00
2018-02-21T00:26:34.084Z,16.23
2018-02-21T00:29:01.589Z,15.97
2018-02-21T00:31:29.148Z,16.10
2018-02-21T00:33:56.635Z,16.43
2018-02-21T00:36:24.267Z,16.23
2018-02-21T00:38:51.848Z,14.90
2018-02-21T00:41:19.367Z,16.33
2018-02-21T00:43:46.852Z,16.10
2018-02-21T00:46:14.529Z,15.77
2018-02-21T00:48:42.031Z,16.37
2018-02-21T00:51:09.549Z,15.47
2018-02-21T00:53:37.051Z,16.40
2018-02-21T00:56:05.559Z,16.10
2018-02-21T00:58:33.120Z,16.00
2018-02-21T01:01:00.627Z,15.73
2018-02-21T01:03:28.123Z,16.10
2018-02-21T01:05:55.672Z,16.93
2018-02-21T01:08:23.184Z,17.60
2018-02-21T01:10:50.719Z,17.03
2018-02-21T01:13:18.293Z,15.97
2018-02-21T01:15:45.807Z,17.23
2018-02-21T01:18:13.312Z,16.33
2018-02-21T01:20:40.855Z,17.57
2018-02-21T01:23:08.356Z,16.73
2018-02-21T01:25:35.862Z,17.33
2018-02-21T01:28:03.348Z,16.57
2018-02-21T01:30:30.908Z,16.67
2018-02-21T01:32:58.453Z,16.33
2018-02-21T01:35:25.964Z,16.67
2018-02-21T01:37:53.455Z,17.50
2018-02-21T01:40:20.987Z,15.07
2018-02-21T01:42:48.579Z,15.80
2018-02-21T01:45:16.068Z,15.70
2018-02-21T01:47:43.592Z,16.93
2018-02-21T01:50:11.179Z,15.67
2018-02-21T01:52:38.724Z,15.50
2018-02-21T01:55:06.210Z,16.00
2018-02-21T01:57:33.743Z,16.30
2018-02-21T02:00:01.295Z,16.20
2018-02-21T02:02:28.864Z,14.70
2018-02-21T02:04:56.384Z,15.00
2018-02-21T02:07:23.981Z,14.43
2018-02-21T02:09:51.473Z,16.10
2018-02-21T02:12:19.003Z,16.10
2018-02-21T02:14:46.500Z,15.13
2018-02-21T02:17:14.007Z,14.97
2018-02-21T02:19:41.511Z,15.13
2018-02-21T02:22:09.032Z,15.00
2018-02-21T02:24:36.536Z,15.00
2018-02-21T02:27:04.084Z,15.27
2018-02-21T02:29:31.575Z,15.43
2018-02-21T02:31:59.168Z,15.57
2018-02-21T02:34:26.696Z,15.63
2018-02-21T02:36:54.225Z,17.37
2018-02-21T02:39:33.623Z,15.80
2018-02-21T02:42:01.186Z,15.40
2018-02-21T02:44:28.764Z,16.03
2018-02-21T02:46:56.292Z,15.90
2018-02-21T02:49:23.784Z,14.83
2018-02-21T02:51:51.336Z,16.97
2018-02-21T02:54:18.848Z,16.00
2018-02-21T02:56:46.371Z,15.90
2018-02-21T02:59:13.864Z,15.43
2018-02-21T03:01:41.380Z,16.80
2018-02-21T03:04:08.879Z,15.73
2018-02-21T03:06:36.407Z,17.23
2018-02-21T03:09:03.899Z,16.27
2018-02-21T03:11:31.492Z,17.33
2018-02-21T03:13:58.983Z,17.70
2018-02-21T03:16:26.507Z,16.40
2018-02-21T03:18:54.015Z,17.83
2018-02-21T03:21:21.529Z,17.53
2018-02-21T03:23:49.092Z,16.43
2018-02-21T03:26:17.531Z,17.27
2018-02-21T03:28:45.094Z,18.33
2018-02-21T03:31:12.654Z,18.40
2018-02-21T03:33:40.171Z,18.37
2018-02-21T03:36:07.709Z,18.47
2018-02-21T03:38:35.222Z,17.20
2018-02-21T03:41:02.821Z,19.47
2018-02-21T03:43:30.385Z,19.03
2018-02-21T03:45:57.891Z,19.47
2018-02-21T03:48:25.436Z,17.67
2018-02-21T03:50:52.951Z,20.13
2018-02-21T03:53:21.540Z,18.80
2018-02-21T03:55:49.031Z,18.67
2018-02-21T03:58:16.568Z,19.57
2018-02-21T04:00:44.060Z,19.40
2018-02-21T04:03:11.584Z,18.63
2018-02-21T04:05:39.071Z,18.77
2018-02-21T04:08:06.587Z,19.70
2018-02-21T04:10:34.079Z,19.20
2018-02-21T04:13:01.616Z,20.50
2018-02-21T04:15:29.110Z,21.10
2018-02-21T04:17:56.624Z,21.67
2018-02-21T04:20:24.191Z,19.93
2018-02-21T04:22:51.723Z,20.50
2018-02-21T04:25:19.256Z,20.53
2018-02-21T04:27:47.792Z,22.40
2018-02-21T04:30:15.351Z,21.37
2018-02-21T04:32:42.883Z,22.17
2018-02-21T04:35:10.492Z,22.13
2018-02-21T04:37:38.015Z,21.77
2018-02-21T04:40:05.500Z,23.00
2018-02-21T04:42:33.052Z,24.03
2018-02-21T04:45:00.604Z,23.37
2018-02-21T04:47:28.111Z,22.43
2018-02-21T04:49:55.598Z,23.70
2018-02-21T04:52:23.131Z,23.17
2018-02-21T04:54:51.116Z,23.50
2018-02-21T04:57:25.180Z,22.60
2018-02-21T04:59:52.671Z,22.70
2018-02-21T05:02:20.164Z,23.60
2018-02-21T05:04:47.679Z,23.53
2018-02-21T05:07:15.199Z,23.37
2018-02-21T05:09:42.711Z,23.60
2018-02-21T05:12:10.325Z,24.07
2018-02-21T05:14:37.979Z,24.17
2018-02-21T05:17:05.542Z,22.77
2018-02-21T05:19:33.060Z,24.17
2018-02-21T05:22:00.555Z,21.13
2018-02-21T05:24:28.076Z,20.73
2018-02-21T05:26:55.568Z,21.57
2018-02-21T05:29:23.139Z,19.53
2018-02-21T05:31:50.643Z,19.27
2018-02-21T05:34:18.166Z,16.67
2018-02-21T05:36:45.676Z,18.23
2018-02-21T05:39:13.199Z,16.93
2018-02-21T05:41:40.696Z,15.63
2018-02-21T05:44:09.200Z,14.97
2018-02-21T05:46:36.696Z,15.43
2018-02-21T05:49:04.215Z,14.67
2018-02-21T05:51:31.779Z,14.50
2018-02-21T05:53:59.332Z,14.37
2018-02-21T05:56:26.823Z,14.60
2018-02-21T05:58:54.368Z,14.87
2018-02-21T06:01:21.886Z,15.10
2018-02-21T06:03:49.456Z,13.20
2018-02-21T06:06:17.044Z,13.40
2018-02-21T06:08:44.563Z,13.73
2018-02-21T06:11:12.161Z,13.10
2018-02-21T06:13:39.679Z,13.27
2018-02-21T06:16:07.284Z,12.83
2018-02-21T06:18:34.880Z,13.03
2018-02-21T06:21:02.366Z,12.33
2018-02-21T06:23:29.881Z,11.57
2018-02-21T06:25:57.383Z,12.20
2018-02-21T06:28:24.931Z,11.83
2018-02-21T06:30:52.424Z,13.87
2018-02-21T06:33:20.923Z,13.90
2018-02-21T06:35:48.478Z,14.20
2018-02-21T06:38:16.031Z,15.57
2018-02-21T06:40:43.547Z,14.30
2018-02-21T06:43:11.169Z,18.83
2018-02-21T06:45:38.691Z,17.63
2018-02-21T06:48:06.183Z,17.50
2018-02-21T06:50:33.711Z,17.33
2018-02-21T06:53:01.200Z,19.27
2018-02-21T06:55:28.716Z,17.63
2018-02-21T06:57:56.216Z,18.70
2018-02-21T07:00:23.751Z,19.30
2018-02-21T07:02:51.252Z,21.83
2018-02-21T07:05:18.771Z,21.67
2018-02-21T07:07:46.342Z,20.57
2018-02-21T07:10:13.861Z,22.83
2018-02-21T07:12:41.355Z,24.23
2018-02-21T07:15:08.876Z,26.63
2018-02-21T07:17:36.371Z,27.97
2018-02-21T07:20:03.888Z,27.03
2018-02-21T07:22:31.380Z,27.03
2018-02-21T07:24:58.947Z,27.83
2018-02-21T07:27:26.512Z,27.57
2018-02-21T07:29:54.048Z,28.07
2018-02-21T07:32:21.544Z,28.00
2018-02-21T07:34:49.055Z,27.60
2018-02-21T07:37:16.651Z,26.47
2018-02-21T07:39:44.200Z,28.10
2018-02-21T07:42:11.700Z,26.80
2018-02-21T07:44:39.219Z,27.10
2018-02-21T07:47:06.786Z,25.87
2018-02-21T07:49:34.313Z,24.87
2018-02-21T07:52:01.816Z,26.53
2018-02-21T07:54:29.364Z,25.93
2018-02-21T07:56:56.916Z,27.37
2018-02-21T07:59:24.519Z,26.43
2018-02-21T08:01:52.016Z,28.57
2018-02-21T08:04:19.580Z,27.27
2018-02-21T08:06:47.076Z,24.80
2018-02-21T08:09:14.592Z,24.13
2018-02-21T08:11:42.176Z,24.00
2018-02-21T08:14:09.664Z,24.00
2018-02-21T08:16:37.199Z,25.00
2018-02-21T08:19:04.765Z,26.30
2018-02-21T08:21:32.276Z,23.47
2018-02-21T08:23:59.768Z,22.53
2018-02-21T08:26:27.288Z,24.10
2018-02-21T08:28:54.775Z,23.27
2018-02-21T08:31:22.347Z,25.37
2018-02-21T08:33:49.908Z,27.40
2018-02-21T08:36:17.419Z,25.70
2018-02-21T08:38:44.907Z,25.47
2018-02-21T08:41:12.464Z,23.97
2018-02-21T08:43:40.024Z,24.13
2018-02-21T08:46:07.538Z,24.90
2018-02-21T08:48:35.033Z,29.10
2018-02-21T08:51:02.626Z,39.00
2018-02-21T08:53:30.247Z,23.93
2018-02-21T08:55:57.757Z,28.23
2018-02-21T08:58:25.244Z,23.00
2018-02-21T09:00:52.775Z,25.27
2018-02-21T09:03:20.263Z,22.93
2018-02-21T09:05:47.791Z,23.87
2018-02-21T09:08:15.330Z,22.33
2018-02-21T09:10:42.897Z,22.93
2018-02-21T09:13:10.403Z,21.60
2018-02-21T09:15:37.919Z,23.57
2018-02-21T09:18:05.416Z,21.90
2018-02-21T09:20:32.947Z,22.37
2018-02-21T09:23:00.462Z,23.73
2018-02-21T09:25:27.971Z,22.67
2018-02-21T09:27:55.472Z,21.90
2018-02-21T09:30:23.009Z,22.07
2018-02-21T09:32:50.510Z,22.43
2018-02-21T09:35:18.032Z,22.80
2018-02-21T09:37:45.519Z,22.93
2018-02-21T09:40:13.036Z,22.77
2018-02-21T09:42:40.528Z,23.50
2018-02-21T09:45:08.055Z,23.27
2018-02-21T09:47:35.543Z,22.87
2018-02-21T09:50:03.031Z,20.77
2018-02-21T09:52:30.601Z,21.77
2018-02-21T09:54:58.100Z,22.47
2018-02-21T09:57:25.752Z,21.83
2018-02-21T09:59:53.263Z,22.20
2018-02-21T10:02:20.828Z,21.97
2018-02-21T10:04:48.383Z,21.40
2018-02-21T10:07:15.891Z,20.87
2018-02-21T10:09:43.383Z,21.67
2018-02-21T10:12:11.880Z,20.67
2018-02-21T10:14:39.368Z,20.97
2018-02-21T10:17:06.896Z,22.50
2018-02-21T10:19:34.391Z,20.73
2018-02-21T10:22:01.908Z,20.17
2018-02-21T10:24:29.479Z,20.40
2018-02-21T10:26:57.010Z,22.37
2018-02-21T10:29:24.504Z,19.33
2018-02-21T10:31:52.048Z,19.63
2018-02-21T10:34:19.635Z,18.03
2018-02-21T10:36:47.167Z,18.37
2018-02-21T10:39:14.655Z,18.20
2018-02-21T10:41:42.182Z,20.17
2018-02-21T10:44:09.676Z,20.73
2018-02-21T10:46:37.199Z,19.90
2018-02-21T10:49:04.768Z,20.30
2018-02-21T10:51:32.279Z,20.30
2018-02-21T10:53:59.827Z,20.07
2018-02-21T10:56:28.332Z,20.57
2018-02-21T10:58:55.820Z,20.20
2018-02-21T11:01:25.864Z,20.63
2018-02-21T11:03:53.357Z,20.07
2018-02-21T11:06:20.928Z,21.83
2018-02-21T11:08:48.524Z,21.53
2018-02-21T11:11:16.043Z,20.30
2018-02-21T11:13:43.528Z,21.03
2018-02-21T11:16:11.053Z,20.97
2018-02-21T11:18:38.559Z,20.63
2018-02-21T11:21:06.083Z,19.77
2018-02-21T11:23:33.708Z,20.83
2018-02-21T11:26:01.144Z,21.83
2018-02-21T11:28:28.665Z,20.63
2018-02-21T11:30:56.154Z,22.50
2018-02-21T11:33:23.695Z,20.63
2018-02-21T11:35:51.191Z,20.90
2018-02-21T11:38:18.703Z,20.90
2018-02-21T11:40:46.192Z,19.10
2018-02-21T11:43:13.763Z,20.83
2018-02-21T11:45:41.403Z,18.50
2018-02-21T11:48:08.908Z,19.80
2018-02-21T11:50:36.401Z,21.07
2018-02-21T11:53:03.923Z,20.10
2018-02-21T11:55:31.466Z,19.17
2018-02-21T11:57:59.009Z,20.83
2018-02-21T12:00:26.569Z,20.73
2018-02-21T12:02:54.092Z,19.40
2018-02-21T12:05:21.687Z,19.37
2018-02-21T12:07:49.203Z,18.10
2018-02-21T12:10:16.836Z,19.40
2018-02-21T12:12:44.340Z,18.37
2018-02-21T12:15:11.843Z,19.13
2018-02-21T12:17:39.367Z,18.03
2018-02-21T12:20:06.863Z,18.97
2018-02-21T12:22:34.395Z,19.03
2018-02-21T12:25:01.887Z,17.57
2018-02-21T12:27:29.431Z,18.17
2018-02-21T12:29:56.975Z,18.50
2018-02-21T12:32:25.000Z,18.17
2018-02-21T12:34:52.510Z,19.20
2018-02-21T12:37:20.036Z,18.03
2018-02-21T12:39:47.531Z,17.63
2018-02-21T12:42:15.036Z,18.10
2018-02-21T12:44:42.524Z,17.53
2018-02-21T12:47:10.105Z,17.90
2018-02-21T12:49:37.607Z,16.60
2018-02-21T12:52:05.143Z,18.70
2018-02-21T12:54:32.680Z,16.97
2018-02-21T12:57:00.231Z,17.70
2018-02-21T12:59:27.800Z,16.40
2018-02-21T13:01:55.291Z,17.87
2018-02-21T13:04:22.799Z,17.17
2018-02-21T13:06:50.370Z,18.30
2018-02-21T13:09:17.929Z,18.27
2018-02-21T13:11:45.443Z,19.00
2018-02-21T13:14:12.991Z,18.70
2018-02-21T13:16:40.507Z,18.17
2018-02-21T13:19:08.020Z,18.13
2018-02-21T13:21:35.516Z,18.27
2018-02-21T13:24:03.080Z,18.83
2018-02-21T13:26:30.575Z,17.47
2018-02-21T13:28:58.092Z,18.20
2018-02-21T13:31:25.646Z,18.13
2018-02-21T13:33:53.192Z,18.87
2018-02-21T13:36:20.688Z,18.80
2018-02-21T13:38:48.236Z,19.77
2018-02-21T13:41:15.799Z,18.60
2018-02-21T13:43:43.323Z,19.93
2018-02-21T13:46:10.837Z,19.10
2018-02-21T13:48:38.412Z,20.13
2018-02-21T13:51:06.040Z,18.60
2018-02-21T13:53:33.595Z,19.10
2018-02-21T13:56:01.152Z,18.40
2018-02-21T13:58:28.676Z,19.63
2018-02-21T14:00:56.268Z,18.57
2018-02-21T14:03:23.799Z,18.87
2018-02-21T14:05:51.288Z,19.70
2018-02-21T14:08:18.853Z,20.40
2018-02-21T14:10:46.412Z,20.23
2018-02-21T14:13:13.929Z,19.17
2018-02-21T14:15:41.424Z,20.27
2018-02-21T14:18:09.912Z,21.90
2018-02-21T14:20:37.399Z,21.97
2018-02-21T14:23:04.927Z,22.23
2018-02-21T14:25:32.427Z,21.13
2018-02-21T14:28:00.048Z,20.67
2018-02-21T14:30:27.599Z,19.87
2018-02-21T14:32:55.096Z,20.23
2018-02-21T14:35:22.778Z,21.87
2018-02-21T14:37:50.252Z,21.53
2018-02-21T14:40:17.764Z,21.03
2018-02-21T14:42:45.312Z,21.23
2018-02-21T14:45:12.868Z,21.20
2018-02-21T14:47:40.427Z,21.23
2018-02-21T14:50:07.968Z,21.67
2018-02-21T14:52:35.544Z,18.80
2018-02-21T14:55:03.051Z,16.87
2018-02-21T14:57:30.547Z,14.03
2018-02-21T14:59:58.056Z,19.03
2018-02-21T15:02:25.548Z,20.70
2018-02-21T15:04:53.063Z,22.43
2018-02-21T15:07:20.563Z,18.57
2018-02-21T15:09:48.163Z,21.00
2018-02-21T15:12:15.717Z,21.27
2018-02-21T15:14:43.280Z,21.43
2018-02-21T15:17:10.851Z,21.47
2018-02-21T15:19:38.367Z,21.63
2018-02-21T15:22:05.960Z,21.73
2018-02-21T15:24:33.514Z,20.73
2018-02-21T15:27:01.081Z,21.13
2018-02-21T15:29:28.639Z,18.13
2018-02-21T15:31:56.168Z,16.63
2018-02-21T15:34:23.705Z,16.53
2018-02-21T15:36:51.203Z,15.53
2018-02-21T15:39:18.770Z,14.60
2018-02-21T15:41:46.264Z,16.37
2018-02-21T15:44:13.775Z,15.97
2018-02-21T15:46:41.264Z,16.60
2018-02-21T15:49:08.808Z,16.80
2018-02-21T15:51:36.366Z,16.87
2018-02-21T15:54:03.883Z,18.17
2018-02-21T15:56:31.497Z,17.93
2018-02-21T15:58:59.035Z,17.27
2018-02-21T16:01:26.595Z,18.00
2018-02-21T16:03:54.180Z,20.33
2018-02-21T16:06:21.728Z,18.37
2018-02-21T16:08:49.230Z,17.77
2018-02-21T16:11:16.754Z,19.17
2018-02-21T16:13:44.297Z,18.67
2018-02-21T16:16:11.795Z,24.00
2018-02-21T16:18:39.322Z,27.37
2018-02-21T16:21:06.839Z,27.50
2018-02-21T16:23:34.343Z,29.60
2018-02-21T16:26:01.856Z,28.60
2018-02-21T16:28:29.454Z,27.50
2018-02-21T16:30:57.035Z,30.33
2018-02-21T16:33:24.544Z,31.87
2018-02-21T16:35:52.100Z,30.07
2018-02-21T16:38:19.586Z,30.43
2018-02-21T16:40:47.094Z,29.23
2018-02-21T16:43:14.583Z,31.17
2018-02-21T16:45:42.168Z,28.90
2018-02-21T16:48:09.676Z,28.90
2018-02-21T16:50:37.183Z,29.13
2018-02-21T16:53:04.681Z,28.70
2018-02-21T16:55:32.214Z,31.60
2018-02-21T16:57:59.701Z,29.07
2018-02-21T17:00:27.330Z,29.67
2018-02-21T17:02:54.372Z,31.47
2018-02-21T17:05:21.883Z,31.47
2018-02-21T17:07:49.371Z,29.20
2018-02-21T17:10:16.943Z,27.23
2018-02-21T17:12:44.444Z,28.37
2018-02-21T17:15:11.973Z,24.27
2018-02-21T17:17:39.476Z,25.23
2018-02-21T17:20:06.988Z,24.23
2018-02-21T17:22:34.534Z,24.97
2018-02-21T17:25:02.046Z,23.87
2018-02-21T17:27:29.569Z,26.57
2018-02-21T17:29:57.080Z,23.87
2018-02-21T17:32:25.272Z,26.00
2018-02-21T17:34:52.785Z,23.90
2018-02-21T17:37:20.303Z,25.10
2018-02-21T17:39:47.869Z,25.27
2018-02-21T17:42:15.407Z,26.50
2018-02-21T17:44:42.901Z,24.97
2018-02-21T17:47:10.419Z,24.97
2018-02-21T17:49:37.908Z,24.73
2018-02-21T17:52:05.458Z,27.70
2018-02-21T17:54:33.024Z,27.33
2018-02-21T17:57:00.585Z,26.80
2018-02-21T17:59:28.139Z,26.50
2018-02-21T18:01:55.643Z,29.50
2018-02-21T18:04:23.155Z,28.20
2018-02-21T18:06:50.663Z,28.67
2018-02-21T18:09:18.168Z,27.43
2018-02-21T18:11:45.736Z,29.47
2018-02-21T18:14:13.232Z,27.27
2018-02-21T18:16:40.744Z,27.90
2018-02-21T18:19:08.236Z,28.60
2018-02-21T18:21:41.480Z,28.27
2018-02-21T18:24:08.963Z,26.40
2018-02-21T18:26:36.525Z,29.80
2018-02-21T18:29:04.028Z,28.80
2018-02-21T18:31:31.539Z,27.17
2018-02-21T18:33:59.028Z,28.13
2018-02-21T18:36:26.540Z,28.37
2018-02-21T18:38:54.043Z,28.60
2018-02-21T18:41:21.559Z,29.87
2018-02-21T18:43:49.135Z,28.83
2018-02-21T18:46:16.692Z,27.73
2018-02-21T18:48:44.252Z,29.43
2018-02-21T18:51:11.929Z,30.33
2018-02-21T18:53:39.432Z,54.93
2018-02-21T18:56:06.948Z,46.27
2018-02-21T18:58:34.492Z,87.73
2018-02-21T19:01:02.011Z,46.77
2018-02-21T19:03:29.504Z,38.70
2018-02-21T19:05:57.018Z,36.17
2018-02-21T19:08:24.521Z,33.80
2018-02-21T19:10:52.057Z,35.70
2018-02-21T19:13:19.578Z,33.53
2018-02-21T19:15:47.086Z,32.93
2018-02-21T19:18:14.657Z,36.80
2018-02-21T19:20:42.149Z,40.40
2018-02-21T19:23:09.682Z,33.50
2018-02-21T19:25:37.176Z,34.47
2018-02-21T19:28:04.687Z,33.90
2018-02-21T19:30:32.175Z,34.13
2018-02-21T19:32:59.815Z,35.87
2018-02-21T19:35:27.356Z,35.90
2018-02-21T19:37:54.871Z,35.53
2018-02-21T19:40:22.365Z,36.40
2018-02-21T19:42:49.877Z,41.57
2018-02-21T19:45:17.412Z,45.00
2018-02-21T19:47:44.925Z,40.97
2018-02-21T19:50:12.433Z,42.07
2018-02-21T19:52:39.948Z,40.97
2018-02-21T19:55:07.436Z,42.23
2018-02-21T19:57:34.951Z,41.87
2018-02-21T20:00:02.442Z,36.60
2018-02-21T20:02:29.955Z,38.40
2018-02-21T20:04:57.443Z,36.43
2018-02-21T20:07:24.951Z,35.87
2018-02-21T20:09:52.513Z,34.73
2018-02-21T20:12:20.096Z,35.53
2018-02-21T20:14:47.588Z,34.83
2018-02-21T20:17:15.188Z,34.00
2018-02-21T20:19:42.685Z,35.37
2018-02-21T20:22:10.202Z,34.83
2018-02-21T20:24:37.700Z,32.87
2018-02-21T20:27:05.217Z,35.73
2018-02-21T20:29:32.716Z,36.07
2018-02-21T20:32:00.280Z,35.03
2018-02-21T20:34:27.775Z,35.90
2018-02-21T20:36:55.487Z,35.90
2018-02-21T20:39:23.007Z,35.30
2018-02-21T20:41:50.523Z,36.67
2018-02-21T20:44:18.019Z,34.63
2018-02-21T20:46:45.543Z,33.50
2018-02-21T20:49:13.032Z,38.40
2018-02-21T20:51:40.523Z,35.90
2018-02-21T20:54:08.057Z,34.90
2018-02-21T20:56:35.551Z,34.13
2018-02-21T20:59:03.698Z,36.50
2018-02-21T21:01:31.241Z,32.60
2018-02-21T21:03:58.768Z,32.30
2018-02-21T21:06:26.479Z,31.57
2018-02-21T21:08:53.995Z,33.33
2018-02-21T21:11:21.607Z,31.87
2018-02-21T21:13:49.125Z,33.43
2018-02-21T21:16:16.711Z,32.87
2018-02-21T21:18:44.232Z,32.83
2018-02-21T21:21:11.929Z,33.37
2018-02-21T21:23:39.444Z,33.73
2018-02-21T21:26:06.945Z,35.97
2018-02-21T21:28:34.467Z,33.80
2018-02-21T21:31:01.970Z,31.97
2018-02-21T21:33:29.632Z,35.70
2018-02-21T21:35:57.130Z,33.57
2018-02-21T21:38:24.658Z,37.97
2018-02-21T21:40:52.155Z,35.20
2018-02-21T21:43:19.677Z,36.13
2018-02-21T21:45:47.172Z,35.93
2018-02-21T21:48:14.711Z,35.30
2018-02-21T21:50:42.218Z,32.77
2018-02-21T21:53:09.736Z,32.40
2018-02-21T21:55:37.232Z,33.90
2018-02-21T21:58:04.797Z,35.60
2018-02-21T22:00:32.300Z,34.57
2018-02-21T22:02:59.825Z,35.73
2018-02-21T22:05:27.328Z,32.87
2018-02-21T22:07:54.946Z,34.47
2018-02-21T22:10:22.444Z,35.07
2018-02-21T22:12:49.967Z,35.07
2018-02-21T22:15:17.764Z,34.20
2018-02-21T22:17:45.289Z,36.90
2018-02-21T22:20:12.788Z,36.13
2018-02-21T22:22:40.308Z,35.20
2018-02-21T22:25:07.802Z,34.20
2018-02-21T22:27:35.301Z,36.23
2018-02-21T22:30:02.824Z,35.07
2018-02-21T22:32:30.364Z,36.47
2018-02-21T22:34:57.964Z,38.60
2018-02-21T22:37:25.477Z,35.63
2018-02-21T22:39:52.992Z,37.83
2018-02-21T22:42:20.483Z,35.23
2018-02-21T22:44:48.026Z,36.10
2018-02-21T22:47:15.528Z,34.87
2018-02-21T22:49:43.043Z,36.50
2018-02-21T22:52:10.577Z,36.97
2018-02-21T22:54:38.119Z,35.70
2018-02-21T22:57:05.619Z,35.10
2018-02-21T22:59:33.135Z,36.03
2018-02-21T23:02:00.635Z,36.80
2018-02-21T23:04:28.288Z,37.17
2018-02-21T23:06:55.784Z,34.37
2018-02-21T23:09:23.301Z,34.70
2018-02-21T23:11:50.800Z,36.07
2018-02-21T23:14:18.325Z,33.93
2018-02-21T23:16:45.827Z,35.80
2018-02-21T23:19:13.352Z,34.87
2018-02-21T23:21:40.939Z,35.03
2018-02-21T23:24:08.495Z,34.30
2018-02-21T23:26:35.996Z,34.13
2018-02-21T23:29:03.611Z,33.47
2018-02-21T23:31:31.127Z,32.33
2018-02-21T23:33:58.741Z,32.27
2018-02-21T23:36:26.281Z,33.63
2018-02-21T23:38:53.835Z,33.87
2018-02-21T23:41:21.326Z,32.63
2018-02-21T23:43:48.982Z,33.40
2018-02-21T23:46:16.484Z,34.07
2018-02-21T23:48:44.003Z,32.07
2018-02-21T23:51:11.531Z,32.77
2018-02-21T23:53:39.157Z,32.47
2018-02-21T23:56:06.649Z,35.03
2018-02-21T23:58:34.184Z,33.80
